createdAt,value
2018-05-14T00:01:32.763Z,25.57
2018-05-14T00:04:00.387Z,24.97
2018-05-14T00:06:29.249Z,24.50
2018-05-14T00:08:56.972Z,23.37
2018-05-14T00:11:24.616Z,25.67
2018-05-14T00:13:52.241Z,25.00
2018-05-14T00:16:20.914Z,25.60
2018-05-14T00:18:48.514Z,25.80
2018-05-14T00:21:16.177Z,26.30
2018-05-14T00:23:44.022Z,25.27
2018-05-14T00:26:12.372Z,25.43
2018-05-14T00:28:40.133Z,25.00
2018-05-14T00:31:07.731Z,27.63
2018-05-14T00:33:35.356Z,26.13
2018-05-14T00:36:06.257Z,25.57
2018-05-14T00:38:33.942Z,26.50
2018-05-14T00:41:01.688Z,27.40
2018-05-14T00:43:29.410Z,27.37
2018-05-14T00:45:57.804Z,27.57
2018-05-14T00:48:26.406Z,27.83
2018-05-14T00:50:54.042Z,26.97
2018-05-14T00:53:22.693Z,28.20
2018-05-14T00:55:50.367Z,27.03
2018-05-14T00:58:18.131Z,27.40
2018-05-14T01:00:46.605Z,28.67
2018-05-14T01:03:14.275Z,26.83
2018-05-14T01:05:41.883Z,26.20
2018-05-14T01:08:09.537Z,26.87
2018-05-14T01:10:37.143Z,27.73
2018-05-14T01:13:04.767Z,27.87
2018-05-14T01:15:32.372Z,29.60
2018-05-14T01:18:00.049Z,30.00
2018-05-14T01:20:28.532Z,29.13
2018-05-14T01:22:56.902Z,27.27
2018-05-14T01:25:25.615Z,29.30
2018-05-14T01:27:54.193Z,31.23
2018-05-14T01:30:22.743Z,30.27
2018-05-14T01:32:50.346Z,31.03
2018-05-14T01:35:17.972Z,32.13
2018-05-14T01:37:45.565Z,31.40
2018-05-14T01:40:14.956Z,31.50
2018-05-14T01:42:43.376Z,32.97
2018-05-14T01:45:10.969Z,33.53
2018-05-14T01:47:38.660Z,31.40
2018-05-14T01:50:07.193Z,32.80
2018-05-14T01:52:35.192Z,31.80
2018-05-14T01:55:02.841Z,30.20
2018-05-14T01:57:30.466Z,32.57
2018-05-14T01:59:58.105Z,33.13
2018-05-14T02:02:25.903Z,33.50
2018-05-14T02:04:53.844Z,31.80
2018-05-14T02:07:22.032Z,32.53
2018-05-14T02:09:50.922Z,32.50
2018-05-14T02:12:18.519Z,31.50
2018-05-14T02:14:46.165Z,31.40
2018-05-14T02:17:13.761Z,31.33
2018-05-14T02:19:41.449Z,31.00
2018-05-14T02:22:09.083Z,30.17
2018-05-14T02:24:36.650Z,32.70
2018-05-14T02:27:07.030Z,32.37
2018-05-14T02:29:34.681Z,30.60
2018-05-14T02:32:02.407Z,32.00
2018-05-14T02:34:30.956Z,31.57
2018-05-14T02:36:58.611Z,32.90
2018-05-14T02:39:26.208Z,33.83
2018-05-14T02:41:53.850Z,32.23
2018-05-14T02:44:21.471Z,31.60
2018-05-14T02:46:49.564Z,33.03
2018-05-14T02:49:17.149Z,34.27
2018-05-14T02:51:44.876Z,31.77
2018-05-14T02:54:13.252Z,31.07
2018-05-14T02:56:41.794Z,32.53
2018-05-14T02:59:10.277Z,31.50
2018-05-14T03:01:38.830Z,32.97
2018-05-14T03:04:07.337Z,33.40
2018-05-14T03:06:35.900Z,31.53
2018-05-14T03:09:06.100Z,33.33
2018-05-14T03:11:33.787Z,31.30
2018-05-14T03:14:02.224Z,30.37
2018-05-14T03:16:30.856Z,30.80
2018-05-14T03:18:59.270Z,29.17
2018-05-14T03:21:26.913Z,31.27
2018-05-14T03:23:55.294Z,31.63
2018-05-14T03:26:23.854Z,29.87
2018-05-14T03:28:51.444Z,30.03
2018-05-14T03:31:20.189Z,29.53
2018-05-14T03:33:47.839Z,28.13
2018-05-14T03:36:15.432Z,27.87
2018-05-14T03:38:43.033Z,30.27
2018-05-14T03:41:10.626Z,28.90
2018-05-14T03:43:38.278Z,29.63
2018-05-14T03:46:06.228Z,29.40
2018-05-14T03:48:33.829Z,30.33
2018-05-14T03:51:01.567Z,29.30
2018-05-14T03:53:29.141Z,30.47
2018-05-14T03:55:58.309Z,30.80
2018-05-14T03:58:37.593Z,28.50
2018-05-14T04:01:15.566Z,26.60
2018-05-14T04:03:54.943Z,26.87
2018-05-14T04:06:32.048Z,25.50
2018-05-14T04:08:59.672Z,25.33
2018-05-14T04:11:28.379Z,26.60
2018-05-14T04:13:57.536Z,26.83
2018-05-14T04:16:28.773Z,26.27
2018-05-14T04:18:57.092Z,24.77
2018-05-14T04:21:25.243Z,27.23
2018-05-14T04:23:53.987Z,26.80
2018-05-14T04:26:21.678Z,28.17
2018-05-14T04:28:49.665Z,25.43
2018-05-14T04:31:17.319Z,24.40
2018-05-14T04:33:45.243Z,26.47
2018-05-14T04:36:12.834Z,24.97
2018-05-14T04:38:40.577Z,25.37
2018-05-14T04:41:08.231Z,28.47
2018-05-14T04:43:35.850Z,26.90
2018-05-14T04:46:03.488Z,25.40
2018-05-14T04:48:31.090Z,26.73
2018-05-14T04:50:58.790Z,23.17
2018-05-14T04:53:26.423Z,25.50
2018-05-14T04:55:54.079Z,26.20
2018-05-14T04:58:21.765Z,26.00
2018-05-14T05:00:49.791Z,28.00
2018-05-14T05:03:17.503Z,26.50
2018-05-14T05:05:47.009Z,24.53
2018-05-14T05:08:14.652Z,22.97
2018-05-14T05:10:42.294Z,25.33
2018-05-14T05:13:09.968Z,24.50
2018-05-14T05:15:38.524Z,24.03
2018-05-14T05:18:06.459Z,23.30
2018-05-14T05:20:35.171Z,25.07
2018-05-14T05:23:02.897Z,21.97
2018-05-14T05:25:30.597Z,24.40
2018-05-14T05:27:58.284Z,24.23
2018-05-14T05:30:26.651Z,23.90
2018-05-14T05:32:55.093Z,24.47
2018-05-14T05:35:22.978Z,23.20
2018-05-14T05:37:50.679Z,22.93
2018-05-14T05:40:19.086Z,26.00
2018-05-14T05:42:47.679Z,22.50
2018-05-14T05:45:16.503Z,22.70
2018-05-14T05:47:44.522Z,21.97
2018-05-14T05:50:12.265Z,22.60
2018-05-14T05:52:40.006Z,22.87
2018-05-14T05:55:08.589Z,23.57
2018-05-14T05:57:36.652Z,21.00
2018-05-14T06:00:04.714Z,22.00
2018-05-14T06:02:32.530Z,21.67
2018-05-14T06:05:01.989Z,20.33
2018-05-14T06:07:29.607Z,23.07
2018-05-14T06:10:00.289Z,21.33
2018-05-14T06:12:27.959Z,20.23
2018-05-14T06:14:55.582Z,21.50
2018-05-14T06:17:23.313Z,21.40
2018-05-14T06:19:51.713Z,20.10
2018-05-14T06:22:19.498Z,19.97
2018-05-14T06:24:47.181Z,25.20
2018-05-14T06:27:16.054Z,21.00
2018-05-14T06:29:43.814Z,19.90
2018-05-14T06:32:11.568Z,18.97
2018-05-14T06:34:39.209Z,20.10
2018-05-14T06:37:07.004Z,19.50
2018-05-14T06:39:35.600Z,18.93
2018-05-14T06:42:04.332Z,20.30
2018-05-14T06:44:32.059Z,19.37
2018-05-14T06:47:05.811Z,18.43
2018-05-14T06:49:33.622Z,17.67
2018-05-14T06:52:05.177Z,17.50
2018-05-14T06:54:32.812Z,17.85
2018-05-14T06:57:01.482Z,17.60
2018-05-14T06:59:29.242Z,19.33
2018-05-14T07:02:00.072Z,17.77
2018-05-14T07:04:28.696Z,16.60
2018-05-14T07:06:56.511Z,16.47
2018-05-14T07:09:24.927Z,18.00
2018-05-14T07:11:52.651Z,17.13
2018-05-14T07:14:22.030Z,18.50
2018-05-14T07:16:49.699Z,16.97
2018-05-14T07:19:17.538Z,17.80
2018-05-14T07:21:45.283Z,16.83
2018-05-14T07:24:12.899Z,17.40
2018-05-14T07:26:45.598Z,16.70
2018-05-14T07:29:14.423Z,17.40
2018-05-14T07:31:42.057Z,18.13
2018-05-14T07:34:09.932Z,18.23
2018-05-14T07:36:38.503Z,19.73
2018-05-14T07:39:09.458Z,18.70
2018-05-14T07:41:37.221Z,18.40
2018-05-14T07:44:05.701Z,18.57
2018-05-14T07:46:33.455Z,19.87
2018-05-14T07:49:01.385Z,18.57
2018-05-14T07:51:31.164Z,18.97
2018-05-14T07:53:59.981Z,19.57
2018-05-14T07:56:27.620Z,19.00
2018-05-14T07:58:55.535Z,19.17
2018-05-14T08:01:24.015Z,20.20
2018-05-14T08:03:52.647Z,19.83
2018-05-14T08:06:20.372Z,19.80
2018-05-14T08:08:48.117Z,20.70
2018-05-14T08:11:21.143Z,20.03
2018-05-14T08:13:49.742Z,20.10
2018-05-14T08:16:21.484Z,21.90
2018-05-14T08:18:49.142Z,20.60
2018-05-14T08:21:16.806Z,21.90
2018-05-14T08:23:44.800Z,21.20
2018-05-14T08:26:13.440Z,21.40
2018-05-14T08:28:41.866Z,20.97
2018-05-14T08:31:09.596Z,21.83
2018-05-14T08:33:37.375Z,21.70
2018-05-14T08:36:05.948Z,21.90
2018-05-14T08:38:33.612Z,20.67
2018-05-14T08:41:01.410Z,20.37
2018-05-14T08:43:30.089Z,21.40
2018-05-14T08:45:57.858Z,19.90
2018-05-14T08:48:25.585Z,21.93
2018-05-14T08:50:53.356Z,21.03
2018-05-14T08:53:21.379Z,22.60
2018-05-14T08:55:49.033Z,20.37
2018-05-14T08:58:17.724Z,21.30
2018-05-14T09:00:45.572Z,20.20
2018-05-14T09:03:14.346Z,21.47
2018-05-14T09:05:42.213Z,19.80
2018-05-14T09:08:10.040Z,20.50
2018-05-14T09:10:38.481Z,20.23
2018-05-14T09:13:06.303Z,20.40
2018-05-14T09:15:34.162Z,22.10
2018-05-14T09:18:01.808Z,21.40
2018-05-14T09:20:30.548Z,21.60
2018-05-14T09:23:00.232Z,22.20
2018-05-14T09:25:28.171Z,21.73
2018-05-14T09:27:55.954Z,21.70
2018-05-14T09:30:23.845Z,22.20
2018-05-14T09:32:51.453Z,21.50
2018-05-14T09:35:19.350Z,22.60
2018-05-14T09:37:46.977Z,24.47
2018-05-14T09:40:15.008Z,23.27
2018-05-14T09:42:42.957Z,22.40
2018-05-14T09:45:10.671Z,23.13
2018-05-14T09:47:38.351Z,23.73
2018-05-14T09:50:06.378Z,23.53
2018-05-14T09:52:34.081Z,21.23
2018-05-14T09:55:02.740Z,23.87
2018-05-14T09:57:30.534Z,23.60
2018-05-14T09:59:58.414Z,21.50
2018-05-14T10:02:27.012Z,22.93
2018-05-14T10:04:54.781Z,23.33
2018-05-14T10:07:22.587Z,22.60
2018-05-14T10:09:50.276Z,21.43
2018-05-14T10:12:19.167Z,20.20
2018-05-14T10:14:47.473Z,20.23
2018-05-14T10:17:15.387Z,22.40
2018-05-14T10:19:43.403Z,21.43
2018-05-14T10:22:13.845Z,21.23
2018-05-14T10:24:41.573Z,24.20
2018-05-14T10:27:09.537Z,21.37
2018-05-14T10:29:37.263Z,22.10
2018-05-14T10:32:07.316Z,21.20
2018-05-14T10:34:36.335Z,21.83
2018-05-14T10:37:05.427Z,21.07
2018-05-14T10:39:34.433Z,22.07
2018-05-14T10:42:02.492Z,18.97
2018-05-14T10:44:30.742Z,19.03
2018-05-14T10:46:59.619Z,21.07
2018-05-14T10:49:29.370Z,20.57
2018-05-14T10:51:57.942Z,22.20
2018-05-14T10:54:26.699Z,22.83
2018-05-14T10:56:54.475Z,21.40
2018-05-14T10:59:23.118Z,20.37
2018-05-14T11:01:51.815Z,22.07
2018-05-14T11:04:20.671Z,21.97
2018-05-14T11:06:49.717Z,22.57
2018-05-14T11:09:17.602Z,22.30
2018-05-14T11:11:46.230Z,21.90
2018-05-14T11:14:14.247Z,21.60
2018-05-14T11:16:42.845Z,21.07
2018-05-14T11:19:10.621Z,26.30
2018-05-14T11:21:38.548Z,25.70
2018-05-14T11:24:09.333Z,24.97
2018-05-14T11:26:36.949Z,26.43
2018-05-14T11:29:06.688Z,26.13
2018-05-14T11:31:38.435Z,25.63
2018-05-14T11:34:06.513Z,23.57
2018-05-14T11:36:36.414Z,25.47
2018-05-14T11:39:05.127Z,25.87
2018-05-14T11:41:35.232Z,26.43
2018-05-14T11:44:04.014Z,26.33
2018-05-14T11:46:32.017Z,24.47
2018-05-14T11:48:59.695Z,25.20
2018-05-14T11:51:27.372Z,24.73
2018-05-14T11:53:56.113Z,27.10
2018-05-14T11:56:23.956Z,27.40
2018-05-14T11:58:52.476Z,25.30
2018-05-14T12:01:21.248Z,26.90
2018-05-14T12:03:50.681Z,25.10
2018-05-14T12:06:19.582Z,27.07
2018-05-14T12:08:48.488Z,28.53
2018-05-14T12:11:16.542Z,27.17
2018-05-14T12:13:44.248Z,26.50
2018-05-14T12:16:11.996Z,27.83
2018-05-14T12:18:40.746Z,27.10
2018-05-14T12:21:09.275Z,27.97
2018-05-14T12:23:36.868Z,27.60
2018-05-14T12:26:04.557Z,28.73
2018-05-14T12:28:32.380Z,25.70
2018-05-14T12:31:00.056Z,27.40
2018-05-14T12:33:28.714Z,27.20
2018-05-14T12:35:56.363Z,25.70
2018-05-14T12:38:24.409Z,28.97
2018-05-14T12:40:53.148Z,25.60
2018-05-14T12:43:21.837Z,25.53
2018-05-14T12:45:50.674Z,23.70
2018-05-14T12:48:19.383Z,25.43
2018-05-14T12:50:47.091Z,25.40
2018-05-14T12:53:14.765Z,30.27
2018-05-14T12:55:43.535Z,26.83
2018-05-14T12:58:11.931Z,25.63
2018-05-14T13:00:40.363Z,26.47
2018-05-14T13:03:09.355Z,26.90
2018-05-14T13:05:37.546Z,29.27
2018-05-14T13:08:08.435Z,27.57
2018-05-14T13:10:36.143Z,26.13
2018-05-14T13:13:04.653Z,30.70
2018-05-14T13:15:33.106Z,31.13
2018-05-14T13:18:00.874Z,31.10
2018-05-14T13:20:28.632Z,30.37
2018-05-14T13:22:57.289Z,33.00
2018-05-14T13:25:25.183Z,31.13
2018-05-14T13:27:52.850Z,30.60
2018-05-14T13:30:20.725Z,29.97
2018-05-14T13:32:48.580Z,28.80
2018-05-14T13:35:16.886Z,29.90
2018-05-14T13:37:45.888Z,32.23
2018-05-14T13:40:14.400Z,31.30
2018-05-14T13:42:42.311Z,31.77
2018-05-14T13:45:10.027Z,32.80
2018-05-14T13:47:37.990Z,31.40
2018-05-14T13:50:09.619Z,31.77
2018-05-14T13:52:37.563Z,30.97
2018-05-14T13:55:05.242Z,30.50
2018-05-14T13:57:33.811Z,28.17
2018-05-14T14:00:01.591Z,27.50
2018-05-14T14:02:31.077Z,26.37
2018-05-14T14:04:59.633Z,30.23
2018-05-14T14:07:27.572Z,27.03
2018-05-14T14:09:55.443Z,24.20
2018-05-14T14:12:23.361Z,22.83
2018-05-14T14:14:51.444Z,23.13
2018-05-14T14:17:19.523Z,20.87
2018-05-14T14:19:49.355Z,16.90
2018-05-14T14:22:17.176Z,16.30
2018-05-14T14:24:45.988Z,14.47
2018-05-14T14:27:16.286Z,15.07
2018-05-14T14:29:47.299Z,15.27
2018-05-14T14:32:18.215Z,12.80
2018-05-14T14:34:48.113Z,14.00
2018-05-14T14:37:16.315Z,12.70
2018-05-14T14:39:44.919Z,12.20
2018-05-14T14:42:13.722Z,11.80
2018-05-14T14:44:41.962Z,10.40
2018-05-14T14:47:11.603Z,10.37
2018-05-14T14:49:40.804Z,10.20
2018-05-14T14:52:10.666Z,10.73
2018-05-14T14:54:39.813Z,10.77
2018-05-14T14:57:09.146Z,11.27
2018-05-14T14:59:37.734Z,11.13
2018-05-14T15:02:10.758Z,11.10
2018-05-14T15:04:40.544Z,10.43
2018-05-14T15:07:09.159Z,9.40
2018-05-14T15:09:40.686Z,11.90
2018-05-14T15:12:09.810Z,8.80
2018-05-14T15:14:38.778Z,11.20
2018-05-14T15:17:08.064Z,9.83
2018-05-14T15:19:36.631Z,7.27
2018-05-14T15:22:05.326Z,8.20
2018-05-14T15:24:34.953Z,8.43
2018-05-14T15:27:04.844Z,7.20
2018-05-14T15:29:33.166Z,6.90
2018-05-14T15:32:01.830Z,6.23
2018-05-14T15:34:31.331Z,6.67
2018-05-14T15:36:59.322Z,6.10
2018-05-14T15:39:28.379Z,5.87
2018-05-14T15:41:56.901Z,6.13
2018-05-14T15:44:24.749Z,6.33
2018-05-14T15:46:54.035Z,6.43
2018-05-14T15:49:22.013Z,6.07
2018-05-14T15:51:49.856Z,5.50
2018-05-14T15:54:18.225Z,6.50
2018-05-14T15:56:50.113Z,5.43
2018-05-14T15:59:21.117Z,5.00
2018-05-14T16:01:49.243Z,6.50
2018-05-14T16:04:17.954Z,4.73
2018-05-14T16:06:46.408Z,6.57
2018-05-14T16:09:15.527Z,8.97
2018-05-14T16:11:45.117Z,10.97
2018-05-14T16:14:13.331Z,9.20
2018-05-14T16:16:41.706Z,10.60
2018-05-14T16:19:09.459Z,9.63
2018-05-14T16:21:38.142Z,10.13
2018-05-14T16:24:06.080Z,9.30
2018-05-14T16:26:34.041Z,9.60
2018-05-14T16:29:02.584Z,6.20
2018-05-14T16:31:30.661Z,6.77
2018-05-14T16:33:58.807Z,4.23
2018-05-14T16:36:27.185Z,4.30
2018-05-14T16:38:57.084Z,4.30
2018-05-14T16:41:25.591Z,4.20
2018-05-14T16:43:55.059Z,3.40
2018-05-14T16:46:22.918Z,4.90
2018-05-14T16:48:51.591Z,3.63
2018-05-14T16:51:19.236Z,3.70
2018-05-14T16:53:48.028Z,3.20
2018-05-14T16:56:15.702Z,3.40
2018-05-14T16:58:44.316Z,3.47
2018-05-14T17:01:14.303Z,3.10
2018-05-14T17:03:42.327Z,3.43
2018-05-14T17:06:11.300Z,3.40
2018-05-14T17:08:39.034Z,3.20
2018-05-14T17:11:07.447Z,3.30
2018-05-14T17:13:35.392Z,3.70
2018-05-14T17:16:03.115Z,3.33
2018-05-14T17:18:31.349Z,3.20
2018-05-14T17:21:00.843Z,3.10
2018-05-14T17:23:28.846Z,2.83
2018-05-14T17:25:58.758Z,3.10
2018-05-14T17:28:28.031Z,3.63
2018-05-14T17:30:55.859Z,3.50
2018-05-14T17:33:24.718Z,3.40
2018-05-14T17:35:52.409Z,2.97
2018-05-14T17:38:20.074Z,3.23
2018-05-14T17:40:48.576Z,3.03
2018-05-14T17:43:16.506Z,3.37
2018-05-14T17:45:44.107Z,3.20
2018-05-14T17:48:12.676Z,3.50
2018-05-14T17:50:41.151Z,2.90
2018-05-14T17:53:08.846Z,3.20
2018-05-14T17:55:39.446Z,3.53
2018-05-14T17:58:08.838Z,3.93
2018-05-14T18:00:36.701Z,3.40
2018-05-14T18:03:05.226Z,3.53
2018-05-14T18:05:36.899Z,3.60
2018-05-14T18:08:06.671Z,3.67
2018-05-14T18:10:34.558Z,3.50
2018-05-14T18:13:02.972Z,3.67
2018-05-14T18:15:34.603Z,3.33
2018-05-14T18:18:03.272Z,3.47
2018-05-14T18:20:31.235Z,3.67
2018-05-14T18:23:02.731Z,3.47
2018-05-14T18:25:36.768Z,3.10
2018-05-14T18:28:09.457Z,3.13
2018-05-14T18:30:40.830Z,3.43
2018-05-14T18:33:14.077Z,3.57
2018-05-14T18:35:44.980Z,3.80
2018-05-14T18:38:17.246Z,3.13
2018-05-14T18:40:45.748Z,3.03
2018-05-14T18:43:13.616Z,3.17
2018-05-14T18:45:41.859Z,4.27
2018-05-14T18:48:10.356Z,3.13
2018-05-14T18:50:38.942Z,3.93
2018-05-14T18:53:08.064Z,3.30
2018-05-14T18:55:37.073Z,3.63
2018-05-14T18:58:06.165Z,3.77
2018-05-14T19:00:34.126Z,4.00
2018-05-14T19:03:02.156Z,3.37
2018-05-14T19:05:30.055Z,3.70
2018-05-14T19:08:00.195Z,3.80
2018-05-14T19:10:34.233Z,4.20
2018-05-14T19:13:04.120Z,4.20
2018-05-14T19:15:38.160Z,3.40
2018-05-14T19:18:07.468Z,3.40
2018-05-14T19:20:35.522Z,3.80
2018-05-14T19:23:11.118Z,4.07
2018-05-14T19:25:39.734Z,4.43
2018-05-14T19:28:14.337Z,4.43
2018-05-14T19:30:42.468Z,3.67
2018-05-14T19:33:10.633Z,3.60
2018-05-14T19:35:44.704Z,3.50
2018-05-14T19:38:12.937Z,4.43
2018-05-14T19:40:47.216Z,4.07
2018-05-14T19:43:15.338Z,3.50
2018-05-14T19:45:43.615Z,4.00
2018-05-14T19:48:13.666Z,4.10
2018-05-14T19:50:42.253Z,3.50
2018-05-14T19:53:10.240Z,4.03
2018-05-14T19:55:38.390Z,3.90
2018-05-14T19:58:06.126Z,4.13
2018-05-14T20:00:33.801Z,3.70
2018-05-14T20:03:01.530Z,3.83
2018-05-14T20:05:30.067Z,4.97
2018-05-14T20:07:57.755Z,4.13
2018-05-14T20:10:26.463Z,3.53
2018-05-14T20:12:54.855Z,4.20
2018-05-14T20:17:57.386Z,4.03
2018-05-14T20:20:25.023Z,3.77
2018-05-14T20:22:52.816Z,4.17
2018-05-14T20:25:20.507Z,4.07
2018-05-14T20:27:49.034Z,4.70
2018-05-14T20:30:16.693Z,4.27
2018-05-14T20:32:44.375Z,4.30
2018-05-14T20:35:20.675Z,4.70
2018-05-14T20:37:49.392Z,4.20
2018-05-14T20:40:17.256Z,4.30
2018-05-14T20:42:45.862Z,3.80
2018-05-14T20:45:14.857Z,4.77
2018-05-14T20:47:42.788Z,5.33
2018-05-14T20:50:10.419Z,4.40
2018-05-14T20:52:38.265Z,4.80
2018-05-14T20:55:06.217Z,4.80
2018-05-14T20:57:33.903Z,4.17
2018-05-14T21:00:02.021Z,4.90
2018-05-14T21:02:31.623Z,4.70
2018-05-14T21:05:00.012Z,5.10
2018-05-14T21:07:28.476Z,4.77
2018-05-14T21:09:56.487Z,4.57
2018-05-14T21:12:25.512Z,4.60
2018-05-14T21:14:54.028Z,5.10
2018-05-14T21:17:22.677Z,4.00
2018-05-14T21:19:51.216Z,7.40
2018-05-14T21:22:18.871Z,5.40
2018-05-14T21:24:47.434Z,4.97
2018-05-14T21:27:15.518Z,4.53
2018-05-14T21:29:44.175Z,4.77
2018-05-14T21:32:12.879Z,4.80
2018-05-14T21:34:40.598Z,4.97
2018-05-14T21:37:08.335Z,4.30
2018-05-14T21:39:36.035Z,5.50
2018-05-14T21:42:03.599Z,4.70
2018-05-14T21:44:31.350Z,4.50
2018-05-14T21:47:02.653Z,5.60
2018-05-14T21:49:30.549Z,5.70
2018-05-14T21:52:00.209Z,5.30
2018-05-14T21:54:27.806Z,5.03
2018-05-14T21:56:56.578Z,4.50
2018-05-14T21:59:25.120Z,4.60
2018-05-14T22:01:52.745Z,4.60
2018-05-14T22:04:21.192Z,5.10
2018-05-14T22:06:55.988Z,4.13
2018-05-14T22:09:24.430Z,4.70
2018-05-14T22:11:52.064Z,5.60
2018-05-14T22:14:20.159Z,4.97
2018-05-14T22:16:48.775Z,5.33
2018-05-14T22:19:16.510Z,5.03
2018-05-14T22:21:44.857Z,4.33
2018-05-14T22:24:12.503Z,4.70
2018-05-14T22:26:40.579Z,5.67
2018-05-14T22:29:09.566Z,5.70
2018-05-14T22:31:37.226Z,4.80
2018-05-14T22:34:05.223Z,5.17
2018-05-14T22:36:33.570Z,4.13
2018-05-14T22:39:03.255Z,4.83
2018-05-14T22:41:30.860Z,4.90
2018-05-14T22:43:58.859Z,5.60
2018-05-14T22:46:26.462Z,4.70
2018-05-14T22:48:54.192Z,5.03
2018-05-14T22:51:21.859Z,5.63
2018-05-14T22:53:49.470Z,5.57
2018-05-14T22:56:22.654Z,5.40
2018-05-14T22:58:50.275Z,4.93
2018-05-14T23:01:18.111Z,5.60
2018-05-14T23:03:46.480Z,5.20
2018-05-14T23:06:14.995Z,5.13
2018-05-14T23:08:42.688Z,5.30
2018-05-14T23:11:10.506Z,4.50
2018-05-14T23:13:38.900Z,4.70
2018-05-14T23:16:07.824Z,4.80
2018-05-14T23:18:35.501Z,5.17
2018-05-14T23:21:03.484Z,5.50
2018-05-14T23:23:31.193Z,5.53
2018-05-14T23:25:58.830Z,5.00
2018-05-14T23:28:28.157Z,6.47
2018-05-14T23:30:56.020Z,4.70
2018-05-14T23:33:23.623Z,5.57
2018-05-14T23:35:52.333Z,5.90
2018-05-14T23:38:21.923Z,5.57
2018-05-14T23:40:49.527Z,5.10
2018-05-14T23:43:17.191Z,5.10
2018-05-14T23:45:44.923Z,4.87
2018-05-14T23:48:12.568Z,5.20
2018-05-14T23:50:40.214Z,5.30
2018-05-14T23:53:07.870Z,5.37
2018-05-14T23:55:35.595Z,5.57
2018-05-14T23:58:04.080Z,5.70
